sensor_id;sensor_type;location;lat;lon;timestamp;pressure;altitude;pressure_sealevel;temperature
18713;BMP280;9485;49.386;8.674;2023-04-01T00:04:27;98959.84;;;13.38
18713;BMP280;9485;49.386;8.674;2023-04-01T00:09:49;98959.16;;;13.45
18713;BMP280;9485;49.386;8.674;2023-04-01T00:15:11;98969.53;;;13.43
18713;BMP280;9485;49.386;8.674;2023-04-01T00:20:32;98964.97;;;13.40
18713;BMP280;9485;49.386;8.674;2023-04-01T00:25:54;98948.94;;;13.42
18713;BMP280;9485;49.386;8.674;2023-04-01T00:31:15;98960.84;;;13.41
18713;BMP280;9485;49.386;8.674;2023-04-01T00:36:35;98957.00;;;13.38
18713;BMP280;9485;49.386;8.674;2023-04-01T00:41:57;98962.69;;;13.38
18713;BMP280;9485;49.386;8.674;2023-04-01T00:47:20;98970.44;;;13.38
18713;BMP280;9485;49.386;8.674;2023-04-01T00:52:41;98965.09;;;13.34
18713;BMP280;9485;49.386;8.674;2023-04-01T00:58:07;98970.78;;;13.34
18713;BMP280;9485;49.386;8.674;2023-04-01T01:03:29;98965.84;;;13.35
18713;BMP280;9485;49.386;8.674;2023-04-01T01:09:18;98961.72;;;13.36
18713;BMP280;9485;49.386;8.674;2023-04-01T01:15:01;98953.97;;;13.36
18713;BMP280;9485;49.386;8.674;2023-04-01T01:27:02;98941.88;;;13.36
18713;BMP280;9485;49.386;8.674;2023-04-01T01:38:29;98929.78;;;13.35
18713;BMP280;9485;49.386;8.674;2023-04-01T01:43:58;98929.78;;;13.35
18713;BMP280;9485;49.386;8.674;2023-04-01T01:49:20;98919.97;;;13.36
18713;BMP280;9485;49.386;8.674;2023-04-01T01:54:49;98920.16;;;13.38
18713;BMP280;9485;49.386;8.674;2023-04-01T02:00:13;98924.75;;;13.41
18713;BMP280;9485;49.386;8.674;2023-04-01T02:05:36;98913.53;;;13.36
18713;BMP280;9485;49.386;8.674;2023-04-01T02:11:07;98916.63;;;13.45
18713;BMP280;9485;49.386;8.674;2023-04-01T02:16:37;98915.56;;;13.48
18713;BMP280;9485;49.386;8.674;2023-04-01T02:22:03;98924.69;;;13.54
18713;BMP280;9485;49.386;8.674;2023-04-01T02:27:28;98913.06;;;13.45
18713;BMP280;9485;49.386;8.674;2023-04-01T02:32:51;98924.34;;;13.57
18713;BMP280;9485;49.386;8.674;2023-04-01T02:38:11;98921.72;;;13.59
18713;BMP280;9485;49.386;8.674;2023-04-01T02:43:36;98930.44;;;13.61
18713;BMP280;9485;49.386;8.674;2023-04-01T02:48:57;98915.13;;;13.64
18713;BMP280;9485;49.386;8.674;2023-04-01T02:54:18;98924.44;;;13.65
18713;BMP280;9485;49.386;8.674;2023-04-01T02:59:40;98926.69;;;13.66
18713;BMP280;9485;49.386;8.674;2023-04-01T03:05:01;98932.16;;;13.64
18713;BMP280;9485;49.386;8.674;2023-04-01T03:10:22;98929.66;;;13.61
18713;BMP280;9485;49.386;8.674;2023-04-01T03:15:43;98921.59;;;13.65
18713;BMP280;9485;49.386;8.674;2023-04-01T03:21:16;98926.69;;;13.66
18713;BMP280;9485;49.386;8.674;2023-04-01T03:26:37;98924.06;;;13.68
18713;BMP280;9485;49.386;8.674;2023-04-01T03:32:00;98916.53;;;13.71
18713;BMP280;9485;49.386;8.674;2023-04-01T03:37:22;98917.28;;;13.71
18713;BMP280;9485;49.386;8.674;2023-04-01T03:42:44;98916.88;;;13.67
18713;BMP280;9485;49.386;8.674;2023-04-01T03:48:06;98923.44;;;13.62
18713;BMP280;9485;49.386;8.674;2023-04-01T03:53:26;98922.19;;;13.50
18713;BMP280;9485;49.386;8.674;2023-04-01T03:58:50;98934.13;;;13.36
18713;BMP280;9485;49.386;8.674;2023-04-01T04:04:12;98936.47;;;13.25
18713;BMP280;9485;49.386;8.674;2023-04-01T04:09:34;98928.63;;;13.18
18713;BMP280;9485;49.386;8.674;2023-04-01T04:14:55;98927.22;;;13.11
18713;BMP280;9485;49.386;8.674;2023-04-01T04:20:17;98935.88;;;13.06
18713;BMP280;9485;49.386;8.674;2023-04-01T04:25:38;98933.16;;;13.00
18713;BMP280;9485;49.386;8.674;2023-04-01T04:30:59;98934.78;;;12.96
18713;BMP280;9485;49.386;8.674;2023-04-01T04:36:22;98930.53;;;12.89
18713;BMP280;9485;49.386;8.674;2023-04-01T04:41:44;98935.00;;;12.85
18713;BMP280;9485;49.386;8.674;2023-04-01T04:47:05;98931.72;;;12.81
18713;BMP280;9485;49.386;8.674;2023-04-01T04:52:27;98920.41;;;12.68
18713;BMP280;9485;49.386;8.674;2023-04-01T04:57:48;98921.81;;;12.62
18713;BMP280;9485;49.386;8.674;2023-04-01T05:03:10;98932.19;;;12.59
18713;BMP280;9485;49.386;8.674;2023-04-01T05:08:32;98908.22;;;12.60
18713;BMP280;9485;49.386;8.674;2023-04-01T05:13:53;98920.09;;;12.59
18713;BMP280;9485;49.386;8.674;2023-04-01T05:19:15;98910.50;;;12.62
18713;BMP280;9485;49.386;8.674;2023-04-01T05:24:37;98915.31;;;12.67
18713;BMP280;9485;49.386;8.674;2023-04-01T05:29:57;98908.44;;;12.75
18713;BMP280;9485;49.386;8.674;2023-04-01T05:35:39;98917.56;;;12.81
18713;BMP280;9485;49.386;8.674;2023-04-01T05:41:02;98918.53;;;12.83
18713;BMP280;9485;49.386;8.674;2023-04-01T05:46:25;98907.00;;;12.94
18713;BMP280;9485;49.386;8.674;2023-04-01T05:51:52;98903.63;;;12.96
18713;BMP280;9485;49.386;8.674;2023-04-01T05:57:14;98907.09;;;13.02
18713;BMP280;9485;49.386;8.674;2023-04-01T06:02:35;98890.31;;;13.04
18713;BMP280;9485;49.386;8.674;2023-04-01T06:08:02;98898.88;;;13.11
18713;BMP280;9485;49.386;8.674;2023-04-01T06:13:43;98895.59;;;13.20
18713;BMP280;9485;49.386;8.674;2023-04-01T06:19:31;98893.06;;;13.30
18713;BMP280;9485;49.386;8.674;2023-04-01T06:25:28;98891.28;;;13.40
18713;BMP280;9485;49.386;8.674;2023-04-01T06:31:03;98895.28;;;13.44
18713;BMP280;9485;49.386;8.674;2023-04-01T06:37:01;98898.88;;;13.45
18713;BMP280;9485;49.386;8.674;2023-04-01T06:42:45;98901.09;;;13.39
18713;BMP280;9485;49.386;8.674;2023-04-01T06:48:57;98900.63;;;13.14
18713;BMP280;9485;49.386;8.674;2023-04-01T06:54:39;98903.16;;;13.05
18713;BMP280;9485;49.386;8.674;2023-04-01T07:00:27;98900.22;;;12.97
18713;BMP280;9485;49.386;8.674;2023-04-01T07:06:01;98894.38;;;12.95
18713;BMP280;9485;49.386;8.674;2023-04-01T07:11:28;98900.91;;;12.90
18713;BMP280;9485;49.386;8.674;2023-04-01T07:17:23;98901.22;;;12.87
18713;BMP280;9485;49.386;8.674;2023-04-01T07:22:50;98912.53;;;12.87
18713;BMP280;9485;49.386;8.674;2023-04-01T07:28:20;98911.47;;;12.77
18713;BMP280;9485;49.386;8.674;2023-04-01T07:34:02;98906.59;;;12.65
18713;BMP280;9485;49.386;8.674;2023-04-01T07:39:40;98917.16;;;12.64
18713;BMP280;9485;49.386;8.674;2023-04-01T07:45:18;98920.44;;;12.55
18713;BMP280;9485;49.386;8.674;2023-04-01T07:50:54;98921.75;;;12.54
18713;BMP280;9485;49.386;8.674;2023-04-01T07:56:27;98923.69;;;12.59
18713;BMP280;9485;49.386;8.674;2023-04-01T08:02:04;98904.31;;;12.63
18713;BMP280;9485;49.386;8.674;2023-04-01T08:07:36;98896.91;;;12.60
18713;BMP280;9485;49.386;8.674;2023-04-01T08:13:34;98925.44;;;12.88
18713;BMP280;9485;49.386;8.674;2023-04-01T08:19:30;98920.84;;;12.98
18713;BMP280;9485;49.386;8.674;2023-04-01T08:24:58;98920.69;;;13.03
18713;BMP280;9485;49.386;8.674;2023-04-01T08:30:26;98926.88;;;13.15
18713;BMP280;9485;49.386;8.674;2023-04-01T08:35:54;98916.53;;;13.17
18713;BMP280;9485;49.386;8.674;2023-04-01T08:41:56;98949.09;;;13.24
18713;BMP280;9485;49.386;8.674;2023-04-01T08:48:08;98929.19;;;13.16
18713;BMP280;9485;49.386;8.674;2023-04-01T08:53:56;98913.88;;;12.99
18713;BMP280;9485;49.386;8.674;2023-04-01T08:59:46;98938.03;;;13.13
18713;BMP280;9485;49.386;8.674;2023-04-01T09:05:55;98940.66;;;12.98
18713;BMP280;9485;49.386;8.674;2023-04-01T09:11:42;98939.16;;;12.97
18713;BMP280;9485;49.386;8.674;2023-04-01T09:23:42;98952.94;;;13.13
18713;BMP280;9485;49.386;8.674;2023-04-01T09:29:20;98949.31;;;13.26
18713;BMP280;9485;49.386;8.674;2023-04-01T09:34:54;98931.88;;;13.22
18713;BMP280;9485;49.386;8.674;2023-04-01T09:40:34;98955.69;;;13.39
18713;BMP280;9485;49.386;8.674;2023-04-01T09:46:26;98969.63;;;13.17
18713;BMP280;9485;49.386;8.674;2023-04-01T09:52:09;98962.69;;;12.92
18713;BMP280;9485;49.386;8.674;2023-04-01T09:58:10;98968.53;;;12.81
18713;BMP280;9485;49.386;8.674;2023-04-01T10:11:29;98936.09;;;12.69
18713;BMP280;9485;49.386;8.674;2023-04-01T10:17:48;98972.81;;;13.00
18713;BMP280;9485;49.386;8.674;2023-04-01T10:23:58;98974.88;;;13.13
18713;BMP280;9485;49.386;8.674;2023-04-01T10:30:19;98977.88;;;13.28
18713;BMP280;9485;49.386;8.674;2023-04-01T10:36:31;98966.97;;;13.32
18713;BMP280;9485;49.386;8.674;2023-04-01T10:49:10;98972.94;;;13.41
18713;BMP280;9485;49.386;8.674;2023-04-01T10:54:46;98978.19;;;13.37
18713;BMP280;9485;49.386;8.674;2023-04-01T11:00:50;98972.19;;;13.41
18713;BMP280;9485;49.386;8.674;2023-04-01T11:13:24;98978.88;;;13.50
18713;BMP280;9485;49.386;8.674;2023-04-01T11:19:26;98986.88;;;13.39
18713;BMP280;9485;49.386;8.674;2023-04-01T11:31:45;98985.91;;;13.37
18713;BMP280;9485;49.386;8.674;2023-04-01T11:37:22;98960.38;;;13.16
18713;BMP280;9485;49.386;8.674;2023-04-01T11:43:15;98999.53;;;13.38
18713;BMP280;9485;49.386;8.674;2023-04-01T11:49:29;98997.69;;;13.41
18713;BMP280;9485;49.386;8.674;2023-04-01T11:55:25;99000.94;;;13.45
18713;BMP280;9485;49.386;8.674;2023-04-01T12:01:08;99020.44;;;13.48
18713;BMP280;9485;49.386;8.674;2023-04-01T12:06:42;99021.41;;;13.50
18713;BMP280;9485;49.386;8.674;2023-04-01T12:12:19;99022.28;;;13.58
18713;BMP280;9485;49.386;8.674;2023-04-01T12:17:49;99019.41;;;13.71
18713;BMP280;9485;49.386;8.674;2023-04-01T12:23:43;99024.25;;;13.84
18713;BMP280;9485;49.386;8.674;2023-04-01T12:29:34;99017.69;;;13.89
18713;BMP280;9485;49.386;8.674;2023-04-01T12:35:26;99024.16;;;13.89
18713;BMP280;9485;49.386;8.674;2023-04-01T12:41:08;99027.59;;;13.95
18713;BMP280;9485;49.386;8.674;2023-04-01T12:46:41;99026.47;;;13.98
18713;BMP280;9485;49.386;8.674;2023-04-01T12:52:11;99031.41;;;13.98
18713;BMP280;9485;49.386;8.674;2023-04-01T12:58:20;99049.97;;;13.99
18713;BMP280;9485;49.386;8.674;2023-04-01T13:10:23;99016.25;;;13.95
18713;BMP280;9485;49.386;8.674;2023-04-01T13:15:51;99052.13;;;14.26
18713;BMP280;9485;49.386;8.674;2023-04-01T13:21:19;99052.97;;;14.34
18713;BMP280;9485;49.386;8.674;2023-04-01T13:26:55;99050.75;;;14.40
18713;BMP280;9485;49.386;8.674;2023-04-01T13:32:31;99058.56;;;14.47
18713;BMP280;9485;49.386;8.674;2023-04-01T13:38:22;99069.59;;;14.50
18713;BMP280;9485;49.386;8.674;2023-04-01T13:43:50;99069.09;;;14.59
18713;BMP280;9485;49.386;8.674;2023-04-01T13:49:42;99075.94;;;14.64
18713;BMP280;9485;49.386;8.674;2023-04-01T13:55:32;99073.88;;;14.64
18713;BMP280;9485;49.386;8.674;2023-04-01T14:01:12;99089.84;;;14.75
18713;BMP280;9485;49.386;8.674;2023-04-01T14:06:48;99079.09;;;14.81
18713;BMP280;9485;49.386;8.674;2023-04-01T14:12:27;99081.41;;;14.82
18713;BMP280;9485;49.386;8.674;2023-04-01T14:18:09;99088.63;;;14.83
18713;BMP280;9485;49.386;8.674;2023-04-01T14:24:14;99076.81;;;14.79
18713;BMP280;9485;49.386;8.674;2023-04-01T14:29:52;99087.22;;;14.77
18713;BMP280;9485;49.386;8.674;2023-04-01T14:35:53;99076.91;;;14.66
18713;BMP280;9485;49.386;8.674;2023-04-01T14:41:29;99100.47;;;14.74
18713;BMP280;9485;49.386;8.674;2023-04-01T14:47:28;99104.84;;;14.75
18713;BMP280;9485;49.386;8.674;2023-04-01T14:53:11;99104.75;;;14.68
18713;BMP280;9485;49.386;8.674;2023-04-01T14:58:45;99098.13;;;14.65
18713;BMP280;9485;49.386;8.674;2023-04-01T15:04:30;99109.75;;;14.75
18713;BMP280;9485;49.386;8.674;2023-04-01T15:10:02;99118.13;;;14.80
18713;BMP280;9485;49.386;8.674;2023-04-01T15:15:48;99125.91;;;14.80
18713;BMP280;9485;49.386;8.674;2023-04-01T15:22:00;99115.66;;;14.77
18713;BMP280;9485;49.386;8.674;2023-04-01T15:27:38;99111.00;;;14.66
18713;BMP280;9485;49.386;8.674;2023-04-01T15:33:20;99139.34;;;14.79
18713;BMP280;9485;49.386;8.674;2023-04-01T15:38:51;99137.19;;;14.72
18713;BMP280;9485;49.386;8.674;2023-04-01T15:44:46;99132.34;;;14.60
18713;BMP280;9485;49.386;8.674;2023-04-01T15:50:46;99137.69;;;14.43
18713;BMP280;9485;49.386;8.674;2023-04-01T15:56:26;99141.00;;;14.34
18713;BMP280;9485;49.386;8.674;2023-04-01T16:01:58;99141.00;;;14.34
18713;BMP280;9485;49.386;8.674;2023-04-01T16:07:43;99158.47;;;14.38
18713;BMP280;9485;49.386;8.674;2023-04-01T16:13:27;99159.09;;;14.44
18713;BMP280;9485;49.386;8.674;2023-04-01T16:24:42;99179.66;;;14.57
18713;BMP280;9485;49.386;8.674;2023-04-01T16:30:32;99174.75;;;14.58
18713;BMP280;9485;49.386;8.674;2023-04-01T16:35:59;99191.97;;;14.60
18713;BMP280;9485;49.386;8.674;2023-04-01T16:41:32;99189.72;;;14.58
18713;BMP280;9485;49.386;8.674;2023-04-01T16:46:57;99182.50;;;14.57
18713;BMP280;9485;49.386;8.674;2023-04-01T16:52:36;99191.03;;;14.57
18713;BMP280;9485;49.386;8.674;2023-04-01T16:58:07;99190.06;;;14.55
18713;BMP280;9485;49.386;8.674;2023-04-01T17:03:37;99206.19;;;14.60
18713;BMP280;9485;49.386;8.674;2023-04-01T17:09:29;99208.84;;;14.58
18713;BMP280;9485;49.386;8.674;2023-04-01T17:15:04;99224.91;;;14.55
18713;BMP280;9485;49.386;8.674;2023-04-01T17:20:45;99228.63;;;14.50
18713;BMP280;9485;49.386;8.674;2023-04-01T17:26:26;99233.59;;;14.37
18713;BMP280;9485;49.386;8.674;2023-04-01T17:32:05;99237.91;;;14.05
18713;BMP280;9485;49.386;8.674;2023-04-01T17:37:45;99243.59;;;13.79
18713;BMP280;9485;49.386;8.674;2023-04-01T17:43:22;99252.88;;;13.53
18713;BMP280;9485;49.386;8.674;2023-04-01T17:48:55;99263.19;;;13.38
18713;BMP280;9485;49.386;8.674;2023-04-01T17:54:27;99257.72;;;13.27
18713;BMP280;9485;49.386;8.674;2023-04-01T18:00:02;99260.44;;;13.20
18713;BMP280;9485;49.386;8.674;2023-04-01T18:05:52;99269.78;;;13.15
18713;BMP280;9485;49.386;8.674;2023-04-01T18:11:32;99275.78;;;13.11
18713;BMP280;9485;49.386;8.674;2023-04-01T18:17:18;99280.03;;;13.05
18713;BMP280;9485;49.386;8.674;2023-04-01T18:22:47;99267.91;;;12.86
18713;BMP280;9485;49.386;8.674;2023-04-01T18:28:26;99289.91;;;12.80
18713;BMP280;9485;49.386;8.674;2023-04-01T18:34:02;99301.53;;;12.76
18713;BMP280;9485;49.386;8.674;2023-04-01T18:39:37;99316.13;;;12.68
18713;BMP280;9485;49.386;8.674;2023-04-01T18:45:10;99326.72;;;12.62
18713;BMP280;9485;49.386;8.674;2023-04-01T18:50:43;99333.31;;;12.51
18713;BMP280;9485;49.386;8.674;2023-04-01T18:56:07;99343.81;;;12.38
18713;BMP280;9485;49.386;8.674;2023-04-01T19:01:39;99354.94;;;12.30
18713;BMP280;9485;49.386;8.674;2023-04-01T19:07:43;99357.16;;;12.19
18713;BMP280;9485;49.386;8.674;2023-04-01T19:13:18;99372.13;;;12.14
18713;BMP280;9485;49.386;8.674;2023-04-01T19:18:55;99374.97;;;12.14
18713;BMP280;9485;49.386;8.674;2023-04-01T19:24:51;99351.81;;;11.92
18713;BMP280;9485;49.386;8.674;2023-04-01T19:30:40;99381.22;;;12.07
18713;BMP280;9485;49.386;8.674;2023-04-01T19:36:15;99380.69;;;12.08
18713;BMP280;9485;49.386;8.674;2023-04-01T19:41:46;99382.00;;;12.07
18713;BMP280;9485;49.386;8.674;2023-04-01T19:47:24;99383.81;;;12.05
18713;BMP280;9485;49.386;8.674;2023-04-01T19:52:53;99389.94;;;12.09
18713;BMP280;9485;49.386;8.674;2023-04-01T19:58:23;99390.47;;;12.07
18713;BMP280;9485;49.386;8.674;2023-04-01T20:03:51;99400.81;;;12.05
18713;BMP280;9485;49.386;8.674;2023-04-01T20:09:45;99402.09;;;12.04
18713;BMP280;9485;49.386;8.674;2023-04-01T20:15:27;99405.91;;;12.06
18713;BMP280;9485;49.386;8.674;2023-04-01T20:20:59;99414.81;;;12.16
18713;BMP280;9485;49.386;8.674;2023-04-01T20:26:24;99431.50;;;12.19
18713;BMP280;9485;49.386;8.674;2023-04-01T20:31:59;99431.22;;;12.23
18713;BMP280;9485;49.386;8.674;2023-04-01T20:37:37;99406.75;;;12.01
18713;BMP280;9485;49.386;8.674;2023-04-01T20:49:40;99449.47;;;12.22
18713;BMP280;9485;49.386;8.674;2023-04-01T20:55:28;99456.44;;;12.21
18713;BMP280;9485;49.386;8.674;2023-04-01T21:01:01;99457.03;;;12.14
18713;BMP280;9485;49.386;8.674;2023-04-01T21:06:54;99464.03;;;12.07
18713;BMP280;9485;49.386;8.674;2023-04-01T21:12:31;99461.25;;;12.02
18713;BMP280;9485;49.386;8.674;2023-04-01T21:24:36;99477.78;;;11.98
18713;BMP280;9485;49.386;8.674;2023-04-01T21:30:23;99490.59;;;11.99
18713;BMP280;9485;49.386;8.674;2023-04-01T21:36:00;99490.00;;;12.06
18713;BMP280;9485;49.386;8.674;2023-04-01T21:41:57;99498.22;;;12.09
18713;BMP280;9485;49.386;8.674;2023-04-01T21:47:59;99501.63;;;12.02
18713;BMP280;9485;49.386;8.674;2023-04-01T21:54:13;99512.47;;;11.98
18713;BMP280;9485;49.386;8.674;2023-04-01T22:05:47;99516.41;;;11.90
18713;BMP280;9485;49.386;8.674;2023-04-01T22:11:26;99516.19;;;11.83
18713;BMP280;9485;49.386;8.674;2023-04-01T22:16:57;99519.03;;;11.83
18713;BMP280;9485;49.386;8.674;2023-04-01T22:22:30;99524.69;;;11.83
18713;BMP280;9485;49.386;8.674;2023-04-01T22:27:58;99519.03;;;11.83
18713;BMP280;9485;49.386;8.674;2023-04-01T22:33:30;99531.88;;;11.84
18713;BMP280;9485;49.386;8.674;2023-04-01T22:39:13;99533.66;;;11.87
18713;BMP280;9485;49.386;8.674;2023-04-01T22:44:52;99536.00;;;11.83
18713;BMP280;9485;49.386;8.674;2023-04-01T22:50:23;99540.94;;;11.77
18713;BMP280;9485;49.386;8.674;2023-04-01T22:55:52;99552.25;;;11.77
18713;BMP280;9485;49.386;8.674;2023-04-01T23:01:20;99553.59;;;11.70
18713;BMP280;9485;49.386;8.674;2023-04-01T23:06:51;99554.16;;;11.63
18713;BMP280;9485;49.386;8.674;2023-04-01T23:12:15;99564.97;;;11.59
18713;BMP280;9485;49.386;8.674;2023-04-01T23:17:53;99563.41;;;11.58
18713;BMP280;9485;49.386;8.674;2023-04-01T23:23:35;99572.69;;;11.59
18713;BMP280;9485;49.386;8.674;2023-04-01T23:29:01;99583.22;;;11.58
18713;BMP280;9485;49.386;8.674;2023-04-01T23:34:30;99582.19;;;11.56
18713;BMP280;9485;49.386;8.674;2023-04-01T23:39:53;99598.16;;;11.53
18713;BMP280;9485;49.386;8.674;2023-04-01T23:45:18;99605.88;;;11.53
18713;BMP280;9485;49.386;8.674;2023-04-01T23:50:41;99610.75;;;11.52
18713;BMP280;9485;49.386;8.674;2023-04-01T23:56:03;99620.75;;;11.48
